createdAt,value
2022-12-18T00:00:49.330Z,101222.56
2022-12-18T00:03:37.959Z,101233.78
2022-12-18T00:06:27.994Z,101206.59
2022-12-18T00:09:16.121Z,101229.22
2022-12-18T00:15:03.615Z,101245.41
2022-12-18T00:17:51.147Z,101253.78
2022-12-18T00:20:39.950Z,101250.66
2022-12-18T00:23:28.217Z,101265.31
2022-12-18T00:26:19.477Z,101269.47
2022-12-18T00:29:14.856Z,101248.13
2022-12-18T00:32:04.510Z,101254.44
2022-12-18T00:34:52.159Z,101276.13
2022-12-18T00:37:39.849Z,101272.16
2022-12-18T00:40:27.435Z,101270.28
2022-12-18T00:43:15.125Z,101290.13
2022-12-18T00:46:03.153Z,101290.06
2022-12-18T00:48:50.864Z,101284.47
2022-12-18T00:51:38.547Z,101293.47
2022-12-18T00:54:26.297Z,101294.41
2022-12-18T00:57:13.926Z,101283.28
2022-12-18T01:00:02.024Z,101291.50
2022-12-18T01:02:50.763Z,101295.53
2022-12-18T01:05:41.444Z,101297.25
2022-12-18T01:08:29.141Z,101293.69
2022-12-18T01:11:21.425Z,101283.69
2022-12-18T01:14:09.374Z,101312.91
2022-12-18T01:16:58.842Z,101316.13
2022-12-18T01:19:46.505Z,101319.88
2022-12-18T01:22:35.500Z,101300.16
2022-12-18T01:25:24.170Z,101324.44
2022-12-18T01:28:12.442Z,101324.25
2022-12-18T01:31:16.054Z,101323.09
2022-12-18T01:34:06.549Z,101325.00
2022-12-18T01:36:55.932Z,101338.25
2022-12-18T01:39:43.752Z,101334.41
2022-12-18T01:42:39.414Z,101340.41
2022-12-18T01:45:33.800Z,101336.50
2022-12-18T01:48:22.282Z,101330.84
2022-12-18T01:51:12.012Z,101328.41
2022-12-18T01:54:00.788Z,101335.38
2022-12-18T01:56:48.517Z,101340.31
2022-12-18T01:59:37.965Z,101349.63
2022-12-18T02:02:28.492Z,101351.50
2022-12-18T02:05:30.193Z,101346.13
2022-12-18T02:08:29.461Z,101357.03
2022-12-18T02:11:24.952Z,101360.09
2022-12-18T02:14:22.059Z,101348.53
2022-12-18T02:17:43.182Z,101355.44
2022-12-18T02:20:49.151Z,101361.81
2022-12-18T02:23:37.039Z,101370.09
2022-12-18T02:26:45.110Z,101361.91
2022-12-18T02:29:41.666Z,101357.94
2022-12-18T02:32:35.607Z,101362.38
2022-12-18T02:35:28.900Z,101366.50
2022-12-18T02:38:19.718Z,101358.13
2022-12-18T02:41:11.208Z,101361.00
2022-12-18T02:44:02.891Z,101365.91
2022-12-18T02:46:54.650Z,101372.72
2022-12-18T02:50:00.815Z,101371.84
2022-12-18T02:53:17.019Z,101372.72
2022-12-18T02:56:21.746Z,101368.38
2022-12-18T02:59:17.240Z,101379.50
2022-12-18T03:02:39.216Z,101372.56
2022-12-18T03:05:36.132Z,101388.81
2022-12-18T03:08:28.683Z,101359.41
2022-12-18T03:11:38.592Z,101368.16
2022-12-18T03:14:32.404Z,101404.50
2022-12-18T03:17:24.739Z,101400.38
2022-12-18T03:20:36.765Z,101402.59
2022-12-18T03:23:27.085Z,101413.50
2022-12-18T03:26:19.163Z,101419.25
2022-12-18T03:29:18.340Z,101406.44
2022-12-18T03:32:17.555Z,101398.81
2022-12-18T03:35:08.428Z,101406.72
2022-12-18T03:37:58.761Z,101410.06
2022-12-18T03:41:17.349Z,101417.66
2022-12-18T03:44:43.521Z,101409.81
2022-12-18T03:47:46.456Z,101425.94
2022-12-18T03:51:02.434Z,101419.72
2022-12-18T03:54:17.700Z,101414.00
2022-12-18T03:57:23.058Z,101419.19
2022-12-18T04:00:16.939Z,101420.56
2022-12-18T04:03:37.555Z,101401.19
2022-12-18T04:06:29.455Z,101420.81
2022-12-18T04:09:17.721Z,101435.53
2022-12-18T04:12:08.003Z,101419.75
2022-12-18T04:14:56.505Z,101433.59
2022-12-18T04:17:49.910Z,101443.16
2022-12-18T04:20:40.796Z,101430.69
2022-12-18T04:23:29.575Z,101423.31
2022-12-18T04:26:19.703Z,101444.53
2022-12-18T04:29:36.536Z,101457.94
2022-12-18T04:32:29.370Z,101447.63
2022-12-18T04:35:21.561Z,101451.69
2022-12-18T04:38:12.332Z,101462.34
2022-12-18T04:41:00.911Z,101468.34
2022-12-18T04:43:49.041Z,101476.81
2022-12-18T04:46:36.645Z,101475.66
2022-12-18T04:49:26.667Z,101473.81
2022-12-18T04:52:17.318Z,101457.44
2022-12-18T04:55:05.334Z,101494.59
2022-12-18T04:57:53.058Z,101484.44
2022-12-18T05:00:40.707Z,101490.16
2022-12-18T05:03:28.552Z,101498.34
2022-12-18T05:06:16.307Z,101503.25
2022-12-18T05:09:04.364Z,101489.16
2022-12-18T05:11:52.101Z,101502.47
2022-12-18T05:14:42.242Z,101513.94
2022-12-18T05:17:29.899Z,101532.84
2022-12-18T05:20:20.653Z,101532.06
2022-12-18T05:23:08.356Z,101543.25
2022-12-18T05:25:58.393Z,101558.28
2022-12-18T05:28:47.198Z,101553.09
2022-12-18T05:31:39.749Z,101533.19
2022-12-18T05:34:27.642Z,101564.06
2022-12-18T05:37:15.323Z,101562.41
2022-12-18T05:40:05.006Z,101565.13
2022-12-18T05:42:35.857Z,101561.63
2022-12-18T05:45:23.631Z,101568.16
2022-12-18T05:48:17.740Z,101570.88
2022-12-18T05:51:10.449Z,101573.88
2022-12-18T05:53:58.269Z,101576.34
2022-12-18T05:56:49.171Z,101575.78
2022-12-18T05:59:39.309Z,101587.25
2022-12-18T06:02:27.247Z,101587.81
2022-12-18T06:05:15.060Z,101593.25
2022-12-18T06:08:03.511Z,101582.06
2022-12-18T06:10:57.143Z,101593.53
2022-12-18T06:13:47.932Z,101602.56
2022-12-18T06:16:35.751Z,101606.16
2022-12-18T06:19:26.195Z,101622.81
2022-12-18T06:22:13.940Z,101623.63
2022-12-18T06:25:01.837Z,101630.69
2022-12-18T06:27:49.546Z,101635.88
2022-12-18T06:30:37.611Z,101640.28
2022-12-18T06:33:28.419Z,101618.72
2022-12-18T06:36:16.251Z,101632.88
2022-12-18T06:39:04.130Z,101636.16
2022-12-18T06:41:52.086Z,101642.44
2022-12-18T06:44:40.979Z,101651.47
2022-12-18T06:47:28.678Z,101652.28
2022-12-18T06:50:16.258Z,101657.72
2022-12-18T06:53:06.153Z,101620.66
2022-12-18T06:56:10.677Z,101648.78
2022-12-18T06:59:01.447Z,101668.16
2022-12-18T07:01:58.118Z,101651.25
2022-12-18T07:04:49.502Z,101657.50
2022-12-18T07:07:41.897Z,101673.66
2022-12-18T07:10:30.488Z,101685.94
2022-12-18T07:13:22.078Z,101690.03
2022-12-18T07:16:25.387Z,101673.91
2022-12-18T07:19:19.318Z,101675.56
2022-12-18T07:23:18.916Z,101696.63
2022-12-18T07:26:13.371Z,101681.59
2022-12-18T07:29:01.032Z,101680.75
2022-12-18T07:31:48.874Z,101667.34
2022-12-18T07:34:39.829Z,101681.00
2022-12-18T07:37:27.502Z,101665.47
2022-12-18T07:40:15.320Z,101681.03
2022-12-18T07:43:03.114Z,101690.84
2022-12-18T07:45:51.895Z,101694.63
2022-12-18T07:48:39.675Z,101686.69
2022-12-18T07:51:27.471Z,101706.63
2022-12-18T07:54:15.201Z,101714.53
2022-12-18T07:57:02.822Z,101694.00
2022-12-18T07:59:50.407Z,101707.38
2022-12-18T08:02:39.758Z,101688.75
2022-12-18T08:05:28.033Z,101714.66
2022-12-18T08:08:15.737Z,101678.88
2022-12-18T08:11:03.422Z,101711.59
2022-12-18T08:13:52.070Z,101710.19
2022-12-18T08:16:39.849Z,101718.69
2022-12-18T08:19:30.652Z,101718.97
2022-12-18T08:22:18.331Z,101712.63
2022-12-18T08:25:06.625Z,101727.31
2022-12-18T08:27:55.030Z,101722.06
2022-12-18T08:30:43.745Z,101729.91
2022-12-18T08:33:31.445Z,101739.81
2022-12-18T08:36:20.361Z,101725.69
2022-12-18T08:39:09.142Z,101703.06
2022-12-18T08:42:18.352Z,101725.69
2022-12-18T08:45:06.606Z,101722.34
2022-12-18T08:47:56.608Z,101736.41
2022-12-18T08:50:44.232Z,101728.03
2022-12-18T08:53:35.628Z,101725.69
2022-12-18T08:56:23.504Z,101739.91
2022-12-18T08:59:17.298Z,101723.63
2022-12-18T09:02:07.089Z,101738.19
2022-12-18T09:04:57.581Z,101738.06
2022-12-18T09:07:45.497Z,101734.06
2022-12-18T09:10:36.558Z,101715.97
2022-12-18T09:13:29.070Z,101736.88
2022-12-18T09:16:18.393Z,101734.22
2022-12-18T09:19:07.126Z,101733.84
2022-12-18T09:21:57.122Z,101717.31
2022-12-18T09:24:44.968Z,101748.88
2022-12-18T09:27:36.124Z,101752.00
2022-12-18T09:30:23.797Z,101762.53
2022-12-18T09:33:12.116Z,101731.16
2022-12-18T09:36:04.391Z,101749.75
2022-12-18T09:38:54.436Z,101758.72
2022-12-18T09:41:56.993Z,101761.25
2022-12-18T09:44:51.377Z,101747.06
2022-12-18T09:47:40.592Z,101764.28
2022-12-18T09:50:38.763Z,101764.56
2022-12-18T09:53:31.996Z,101758.38
2022-12-18T09:56:24.200Z,101748.38
2022-12-18T09:59:22.737Z,101752.75
2022-12-18T10:02:24.878Z,101754.75
2022-12-18T10:05:19.207Z,101763.41
2022-12-18T10:08:24.997Z,101763.19
2022-12-18T10:11:30.757Z,101761.59
2022-12-18T10:14:39.320Z,101761.47
2022-12-18T10:21:11.005Z,101770.50
2022-12-18T10:24:17.131Z,101765.19
2022-12-18T10:27:17.610Z,101771.53
2022-12-18T10:30:14.786Z,101769.34
2022-12-18T10:33:04.357Z,101778.78
2022-12-18T10:35:56.161Z,101777.03
2022-12-18T10:38:44.559Z,101775.91
2022-12-18T10:41:33.604Z,101772.78
2022-12-18T10:44:24.161Z,101767.19
2022-12-18T10:47:20.664Z,101753.13
2022-12-18T10:50:21.772Z,101772.09
2022-12-18T10:53:21.013Z,101763.50
2022-12-18T10:56:08.769Z,101766.00
2022-12-18T10:59:17.317Z,101770.84
2022-12-18T11:02:39.662Z,101757.75
2022-12-18T11:05:33.561Z,101774.41
2022-12-18T11:08:25.645Z,101770.56
2022-12-18T11:11:24.422Z,101769.66
2022-12-18T11:14:22.827Z,101757.41
2022-12-18T11:17:26.741Z,101760.88
2022-12-18T11:20:35.956Z,101763.03
2022-12-18T11:23:28.240Z,101758.56
2022-12-18T11:26:16.176Z,101768.25
2022-12-18T11:29:16.980Z,101768.94
2022-12-18T11:32:31.374Z,101769.84
2022-12-18T11:35:43.449Z,101763.84
2022-12-18T11:38:40.962Z,101775.19
2022-12-18T11:42:06.806Z,101780.72
2022-12-18T11:45:03.501Z,101790.59
2022-12-18T11:48:14.107Z,101803.03
2022-12-18T11:51:04.422Z,101796.59
2022-12-18T11:53:53.260Z,101795.16
2022-12-18T11:56:49.370Z,101791.66
2022-12-18T11:59:59.952Z,101772.84
2022-12-18T12:03:22.586Z,101800.59
2022-12-18T12:06:26.578Z,101798.88
2022-12-18T12:09:32.972Z,101791.06
2022-12-18T12:13:11.880Z,101790.28
2022-12-18T12:16:20.340Z,101793.34
2022-12-18T12:19:34.346Z,101801.88
2022-12-18T12:22:27.196Z,101802.69
2022-12-18T12:25:32.736Z,101809.31
2022-12-18T12:28:56.227Z,101793.91
2022-12-18T12:32:20.101Z,101788.19
2022-12-18T12:35:33.349Z,101798.50
2022-12-18T12:38:41.116Z,101796.84
2022-12-18T12:41:51.955Z,101800.31
2022-12-18T12:44:45.610Z,101809.69
2022-12-18T12:47:47.792Z,101795.25
2022-12-18T12:50:36.912Z,101805.94
2022-12-18T12:53:35.979Z,101805.22
2022-12-18T12:56:29.016Z,101819.47
2022-12-18T12:59:45.703Z,101827.47
2022-12-18T13:02:56.298Z,101825.09
2022-12-18T13:05:55.985Z,101829.25
2022-12-18T13:08:58.746Z,101818.66
2022-12-18T13:12:08.551Z,101834.75
2022-12-18T13:15:24.231Z,101835.09
2022-12-18T13:18:11.854Z,101831.25
2022-12-18T13:24:24.048Z,101841.72
2022-12-18T13:27:49.948Z,101846.59
2022-12-18T13:30:55.568Z,101844.13
2022-12-18T13:34:23.861Z,101826.41
2022-12-18T13:36:56.200Z,101849.38
2022-12-18T13:39:43.969Z,101850.78
2022-12-18T13:43:09.595Z,101851.38
2022-12-18T13:46:01.743Z,101851.91
2022-12-18T13:48:55.807Z,101856.31
2022-12-18T13:51:56.719Z,101856.31
2022-12-18T13:55:08.498Z,101868.97
2022-12-18T13:58:07.266Z,101866.81
2022-12-18T14:00:55.253Z,101855.63
2022-12-18T14:03:43.102Z,101868.22
2022-12-18T14:06:31.391Z,101863.66
2022-12-18T14:09:27.309Z,101856.50
2022-12-18T14:12:42.116Z,101865.59
2022-12-18T14:15:35.251Z,101864.75
2022-12-18T14:18:48.090Z,101868.06
2022-12-18T14:21:36.391Z,101870.53
2022-12-18T14:24:24.266Z,101882.53
2022-12-18T14:27:21.802Z,101886.38
2022-12-18T14:30:25.066Z,101898.66
2022-12-18T14:33:19.849Z,101881.38
2022-12-18T14:36:17.355Z,101868.53
2022-12-18T14:39:05.179Z,101897.22
2022-12-18T14:41:53.911Z,101885.97
2022-12-18T14:45:05.068Z,101905.94
2022-12-18T14:47:49.229Z,101922.53
2022-12-18T14:50:37.449Z,101923.28
2022-12-18T14:53:34.203Z,101916.75
2022-12-18T14:56:25.044Z,101919.75
2022-12-18T14:59:23.736Z,101931.94
2022-12-18T15:02:14.764Z,101926.16
2022-12-18T15:05:08.419Z,101912.94
2022-12-18T15:08:03.312Z,101912.94
2022-12-18T15:10:51.200Z,101924.34
2022-12-18T15:13:39.894Z,101941.25
2022-12-18T15:16:28.136Z,101936.88
2022-12-18T15:19:20.112Z,101947.47
2022-12-18T15:22:29.361Z,101957.25
2022-12-18T15:25:34.398Z,101965.34
2022-12-18T15:28:58.674Z,101968.06
2022-12-18T15:32:01.792Z,101956.88
2022-12-18T15:34:49.468Z,101985.22
2022-12-18T15:37:37.131Z,101992.56
2022-12-18T15:40:25.240Z,102000.41
2022-12-18T15:43:31.399Z,102002.31
2022-12-18T15:46:23.629Z,102009.97
2022-12-18T15:49:11.172Z,102002.38
2022-12-18T15:52:01.171Z,101977.88
2022-12-18T15:55:07.405Z,102016.53
2022-12-18T15:57:55.075Z,102024.69
2022-12-18T16:00:42.780Z,102024.75
2022-12-18T16:03:30.943Z,102037.31
2022-12-18T16:06:18.704Z,102014.94
2022-12-18T16:09:06.703Z,102038.50
2022-12-18T16:11:54.375Z,102045.31
2022-12-18T16:14:45.261Z,102054.78
2022-12-18T16:17:33.811Z,102059.50
2022-12-18T16:20:23.454Z,102075.84
2022-12-18T16:23:11.187Z,102081.41
2022-12-18T16:25:58.978Z,102061.19
2022-12-18T16:28:56.211Z,102095.25
2022-12-18T16:31:44.340Z,102100.47
2022-12-18T16:34:38.944Z,102097.47
2022-12-18T16:37:30.423Z,102112.66
2022-12-18T16:40:19.248Z,102114.31
2022-12-18T16:43:07.040Z,102112.41
2022-12-18T16:46:01.119Z,102122.88
2022-12-18T16:48:48.993Z,102116.63
2022-12-18T16:51:37.598Z,102119.34
2022-12-18T16:54:30.807Z,102117.13
2022-12-18T16:57:21.069Z,102104.72
2022-12-18T17:00:12.264Z,102126.09
2022-12-18T17:03:01.738Z,102106.31
2022-12-18T17:05:53.359Z,102135.84
2022-12-18T17:08:41.071Z,102140.13
2022-12-18T17:11:32.349Z,102155.97
2022-12-18T17:14:23.166Z,102165.91
2022-12-18T17:17:26.146Z,102170.06
2022-12-18T17:20:16.769Z,102151.38
2022-12-18T17:23:04.944Z,102180.75
2022-12-18T17:25:56.641Z,102170.75
2022-12-18T17:28:44.450Z,102144.19
2022-12-18T17:31:32.444Z,102190.72
2022-12-18T17:34:22.145Z,102187.50
2022-12-18T17:37:09.737Z,102186.34
2022-12-18T17:39:57.491Z,102167.31
2022-12-18T17:42:35.734Z,102188.94
2022-12-18T17:45:23.418Z,102192.84
2022-12-18T17:48:11.127Z,102193.69
2022-12-18T17:51:05.381Z,102192.84
2022-12-18T17:53:53.505Z,102211.66
2022-12-18T17:56:41.294Z,102211.44
2022-12-18T17:59:29.018Z,102208.97
2022-12-18T18:02:16.869Z,102201.03
2022-12-18T18:05:05.541Z,102231.16
2022-12-18T18:07:53.313Z,102221.47
2022-12-18T18:10:49.733Z,102251.00
2022-12-18T18:13:59.258Z,102242.25
2022-12-18T18:16:53.407Z,102240.72
2022-12-18T18:19:45.457Z,102250.75
2022-12-18T18:22:36.472Z,102249.00
2022-12-18T18:25:24.753Z,102252.44
2022-12-18T18:28:14.035Z,102259.75
2022-12-18T18:31:06.529Z,102255.50
2022-12-18T18:33:57.321Z,102263.91
2022-12-18T18:36:47.065Z,102171.13
2022-12-18T18:39:40.165Z,102254.91
2022-12-18T18:42:29.083Z,102272.50
2022-12-18T18:45:16.857Z,102269.69
2022-12-18T18:48:04.856Z,102275.22
2022-12-18T18:51:11.081Z,102274.19
2022-12-18T18:54:00.355Z,102257.50
2022-12-18T18:59:59.583Z,102272.88
2022-12-18T19:02:47.306Z,102281.47
2022-12-18T19:05:35.184Z,102284.22
2022-12-18T19:08:23.974Z,102273.22
2022-12-18T19:11:36.569Z,102288.69
2022-12-18T19:14:24.584Z,102265.63
2022-12-18T19:17:12.342Z,102296.69
2022-12-18T19:20:03.010Z,102295.63
2022-12-18T19:22:56.985Z,102288.41
2022-12-18T19:25:44.749Z,102297.50
2022-12-18T19:28:33.101Z,102312.06
2022-12-18T19:31:31.811Z,102294.97
2022-12-18T19:34:22.713Z,102314.38
2022-12-18T19:37:10.714Z,102322.69
2022-12-18T19:39:58.810Z,102326.25
2022-12-18T19:42:48.498Z,102331.19
2022-12-18T19:45:36.831Z,102324.59
2022-12-18T19:48:29.875Z,102335.44
2022-12-18T19:51:28.528Z,102349.81
2022-12-18T19:54:17.376Z,102359.19
2022-12-18T19:57:08.333Z,102342.81
2022-12-18T19:59:55.983Z,102360.22
2022-12-18T20:02:43.919Z,102373.72
2022-12-18T20:05:32.015Z,102370.84
2022-12-18T20:08:27.785Z,102347.22
2022-12-18T20:11:15.476Z,102379.53
2022-12-18T20:14:04.358Z,102370.88
2022-12-18T20:16:53.402Z,102372.28
2022-12-18T20:19:42.063Z,102350.81
2022-12-18T20:22:29.962Z,102367.84
2022-12-18T20:25:20.577Z,102365.44
2022-12-18T20:28:08.268Z,102373.13
2022-12-18T20:31:02.997Z,102390.44
2022-12-18T20:33:52.038Z,102379.47
2022-12-18T20:36:41.192Z,102388.19
2022-12-18T20:39:30.290Z,102393.91
2022-12-18T20:42:18.072Z,102393.81
2022-12-18T20:45:06.483Z,102390.72
2022-12-18T20:47:57.490Z,102383.91
2022-12-18T20:50:45.121Z,102383.69
2022-12-18T20:53:36.887Z,102388.56
2022-12-18T20:56:30.825Z,102383.28
2022-12-18T21:02:28.301Z,102394.28
2022-12-18T21:05:20.452Z,102386.59
2022-12-18T21:08:10.572Z,102391.13
2022-12-18T21:11:41.109Z,102388.78
2022-12-18T21:14:31.179Z,102382.41
2022-12-18T21:17:18.932Z,102379.09
2022-12-18T21:20:07.269Z,102362.72
2022-12-18T21:22:57.708Z,102401.06
2022-12-18T21:26:40.467Z,102404.47
2022-12-18T21:29:33.511Z,102419.28
2022-12-18T21:32:21.205Z,102409.72
2022-12-18T21:35:11.520Z,102420.25
2022-12-18T21:37:59.029Z,102408.91
2022-12-18T21:40:46.663Z,102400.97
2022-12-18T21:43:53.289Z,102390.88
2022-12-18T21:46:44.349Z,102425.28
2022-12-18T21:49:32.074Z,102376.81
2022-12-18T21:52:28.340Z,102413.19
2022-12-18T21:55:19.956Z,102412.94
2022-12-18T21:58:34.256Z,102414.34
2022-12-18T22:01:21.993Z,102406.09
2022-12-18T22:04:12.415Z,102405.38
2022-12-18T22:07:05.277Z,102383.72
2022-12-18T22:09:53.088Z,102416.72
2022-12-18T22:12:44.043Z,102411.06
2022-12-18T22:15:32.575Z,102403.50
2022-12-18T22:18:23.087Z,102393.66
2022-12-18T22:21:29.022Z,102378.84
2022-12-18T22:24:22.792Z,102400.03
2022-12-18T22:27:10.509Z,102403.00
2022-12-18T22:30:04.417Z,102389.16
2022-12-18T22:32:52.197Z,102399.94
2022-12-18T22:35:42.103Z,102408.47
2022-12-18T22:38:29.834Z,102414.16
2022-12-18T22:41:18.112Z,102408.34
2022-12-18T22:44:05.983Z,102418.41
2022-12-18T22:47:05.554Z,102415.91
2022-12-18T22:49:54.391Z,102419.69
2022-12-18T22:52:42.544Z,102413.19
2022-12-18T22:55:30.282Z,102405.38
2022-12-18T22:58:18.575Z,102416.03
2022-12-18T23:01:07.101Z,102415.19
2022-12-18T23:03:55.473Z,102414.13
2022-12-18T23:06:44.303Z,102387.28
2022-12-18T23:09:32.447Z,102409.50
2022-12-18T23:12:20.348Z,102404.31
2022-12-18T23:15:08.358Z,102407.41
2022-12-18T23:17:58.107Z,102406.66
2022-12-18T23:20:45.848Z,102369.88
2022-12-18T23:23:36.222Z,102435.19
2022-12-18T23:26:25.301Z,102435.66
2022-12-18T23:29:12.881Z,102440.75
2022-12-18T23:32:00.544Z,102440.50
2022-12-18T23:34:48.356Z,102419.34
2022-12-18T23:37:59.047Z,102424.91
2022-12-18T23:40:43.803Z,102419.22
2022-12-18T23:43:36.480Z,102350.81
2022-12-18T23:46:30.485Z,102419.69
2022-12-18T23:49:18.705Z,102441.47
2022-12-18T23:52:06.526Z,102446.63
2022-12-18T23:54:56.234Z,102451.63
2022-12-18T23:57:43.944Z,102422.16
